This is the latest recevied weather packets stored in our database for station/object Ummendorf. If no packets are shown the sender has not sent any weather packets the latest 1 day(s).
| Time | Temp. | Humidity | Pressure | Rain* | Wind** | Luminosity | Snow |
|---|---|---|---|---|---|---|---|
| 1836273905 | 11.67° C | 72% | 1022.8 hPa | 0 mm | 1.34 m/s, 113° | - | - |
| 1778032932 | 9.44° C | 66% | 1008.7 hPa | 0 mm | 0 m/s | - | - |
| 1778031131 | 9.44° C | 66% | 1008.6 hPa | 0 mm | 1.79 m/s, 219° | - | - |
| 1778029332 | 10° C | 66% | 1009.3 hPa | 0 mm | 0 m/s | - | - |
| 1778027529 | 10° C | 66% | 1009 hPa | 0 mm | 0.45 m/s, 197° | - | - |
| 1778025729 | 9.44° C | 65% | 1009.2 hPa | 0 mm | 1.79 m/s, 217° | - | - |
| 1778023929 | 9.44° C | 65% | 1009.3 hPa | 0 mm | 0 m/s | - | - |
| 1778022129 | 10° C | 64% | 1009.6 hPa | 0 mm | 0 m/s | - | - |
| 1778020330 | 10° C | 62% | 1009.6 hPa | 0 mm | 0.45 m/s, 240° | - | - |
| 1778018529 | 10.56° C | 61% | 1009.5 hPa | 0 mm | 1.79 m/s, 240° | - | - |
| 1778016731 | 11.67° C | 61% | 1009.6 hPa | 0.51 mm | 0.45 m/s, 246° | - | - |
| 1778014935 | 12.22° C | 59% | 1009.4 hPa | 0.51 mm | 4.02 m/s, 167° | - | - |
| 1778013129 | 12.22° C | 59% | 1009.4 hPa | 0.51 mm | 3.13 m/s, 201° | - | - |
| 1778011330 | 12.78° C | 59% | 1009.6 hPa | 0.51 mm | 5.81 m/s, 198° | - | - |
| 1778009529 | 13.33° C | 58% | 1009.6 hPa | 0.51 mm | 3.58 m/s, 205° | - | - |
| 1778007735 | 15° C | 54% | 1008.9 hPa | 0 mm | 8.49 m/s, 222° | - | - |
| 1778005932 | 16.11° C | 50% | 1008.2 hPa | 0 mm | 5.36 m/s, 231° | - | - |
| 1778004131 | 16.67° C | 49% | 1007.8 hPa | 0 mm | 3.58 m/s, 272° | - | - |
| 1778002330 | 17.22° C | 46% | 1007.5 hPa | 0 mm | 4.02 m/s, 251° | - | - |
| 1778000530 | 17.78° C | 46% | 1007.3 hPa | 0 mm | 4.02 m/s, 309° | - | - |
| 1777998731 | 18.33° C | 43% | 1007 hPa | 0 mm | 1.34 m/s, 225° | - | - |
| 1777995130 | 17.78° C | 44% | 1007.6 hPa | 0 mm | 3.58 m/s, 230° | - | - |
| 1777993336 | 17.78° C | 43% | 1007.5 hPa | 0 mm | 2.24 m/s, 293° | - | - |
| 1777991532 | 17.22° C | 45% | 1007.4 hPa | 0 mm | 3.13 m/s, 355° | - | - |
| 1777989730 | 17.22° C | 47% | 1007.5 hPa | 0 mm | 4.92 m/s, 303° | - | - |
* Rain since midnight (hover to see other rain measurements)
** Current wind speed in m/s (hover to see current wind gust speed)